createdAt,value
2022-11-09T00:02:14.716Z,1.40
2022-11-09T00:04:41.250Z,1.30
2022-11-09T00:07:07.900Z,1.30
2022-11-09T00:09:34.988Z,1.60
2022-11-09T00:12:04.856Z,1.40
2022-11-09T00:14:31.462Z,1.30
2022-11-09T00:16:58.536Z,1.20
2022-11-09T00:19:26.024Z,1.40
2022-11-09T00:21:53.308Z,1.30
2022-11-09T00:24:19.804Z,1.30
2022-11-09T00:26:46.226Z,1.10
2022-11-09T00:29:13.001Z,1.50
2022-11-09T00:31:39.416Z,1.30
2022-11-09T00:34:05.890Z,1.40
2022-11-09T00:36:32.809Z,1.40
2022-11-09T00:39:00.737Z,1.70
2022-11-09T00:41:28.204Z,1.30
2022-11-09T00:43:55.093Z,1.30
2022-11-09T00:46:22.519Z,1.30
2022-11-09T00:48:49.308Z,1.30
2022-11-09T00:51:15.850Z,1.40
2022-11-09T00:53:42.892Z,1.20
2022-11-09T00:56:13.317Z,1.40
2022-11-09T00:58:41.037Z,1.20
2022-11-09T01:01:17.795Z,1.30
2022-11-09T01:03:45.609Z,1.30
2022-11-09T01:06:21.486Z,1.40
2022-11-09T01:08:48.440Z,1.40
2022-11-09T01:11:17.289Z,1.30
2022-11-09T01:13:44.141Z,1.10
2022-11-09T01:16:16.663Z,1.30
2022-11-09T01:18:43.283Z,1.20
2022-11-09T01:21:12.815Z,1.30
2022-11-09T01:23:40.443Z,1.20
2022-11-09T01:26:10.253Z,1.20
2022-11-09T01:28:37.184Z,1.30
2022-11-09T01:31:11.341Z,1.30
2022-11-09T01:33:38.261Z,1.20
2022-11-09T01:36:07.283Z,1.30
2022-11-09T01:38:33.941Z,1.40
2022-11-09T01:41:00.472Z,1.20
2022-11-09T01:43:26.889Z,1.30
2022-11-09T01:46:12.479Z,1.20
2022-11-09T01:49:11.363Z,1.00
2022-11-09T01:51:42.785Z,1.00
2022-11-09T01:54:18.080Z,1.10
2022-11-09T01:56:47.295Z,1.40
2022-11-09T01:59:20.512Z,1.10
2022-11-09T02:01:47.453Z,1.10
2022-11-09T02:04:17.405Z,1.10
2022-11-09T02:06:45.144Z,1.10
2022-11-09T02:09:25.910Z,1.10
2022-11-09T02:11:52.446Z,1.20
2022-11-09T02:14:22.622Z,1.10
2022-11-09T02:16:49.934Z,1.40
2022-11-09T02:19:16.485Z,1.10
2022-11-09T02:21:43.006Z,1.30
2022-11-09T02:24:10.696Z,1.30
2022-11-09T02:27:05.447Z,1.20
2022-11-09T02:29:44.010Z,1.10
2022-11-09T02:32:17.334Z,1.20
2022-11-09T02:34:44.008Z,1.20
2022-11-09T02:37:10.548Z,1.20
2022-11-09T02:39:37.638Z,1.20
2022-11-09T02:42:11.410Z,1.10
2022-11-09T02:44:46.116Z,1.10
2022-11-09T02:47:12.609Z,1.30
2022-11-09T02:49:39.179Z,1.30
2022-11-09T02:52:05.697Z,1.20
2022-11-09T02:54:32.304Z,1.30
2022-11-09T02:56:58.886Z,1.30
2022-11-09T02:59:25.524Z,1.00
2022-11-09T03:01:52.212Z,1.30
2022-11-09T03:04:18.724Z,1.10
2022-11-09T03:06:45.140Z,1.20
2022-11-09T03:09:12.624Z,1.40
2022-11-09T03:11:41.060Z,1.10
2022-11-09T03:14:10.139Z,1.10
2022-11-09T03:16:37.774Z,1.20
2022-11-09T03:19:05.088Z,1.20
2022-11-09T03:21:31.536Z,1.30
2022-11-09T03:23:58.236Z,1.10
2022-11-09T03:26:25.023Z,1.00
2022-11-09T03:28:51.698Z,1.30
2022-11-09T03:31:18.296Z,1.20
2022-11-09T03:33:44.807Z,1.00
2022-11-09T03:36:11.311Z,1.10
2022-11-09T03:38:37.815Z,1.20
2022-11-09T03:41:04.442Z,1.30
2022-11-09T03:43:30.927Z,1.30
2022-11-09T03:45:57.656Z,1.10
2022-11-09T03:48:24.634Z,1.30
2022-11-09T03:50:51.574Z,1.30
2022-11-09T03:53:18.465Z,1.40
2022-11-09T03:55:45.155Z,1.20
2022-11-09T03:58:13.240Z,1.20
2022-11-09T04:00:39.720Z,1.30
2022-11-09T04:03:06.218Z,1.10
2022-11-09T04:05:32.788Z,1.20
2022-11-09T04:07:59.719Z,1.20
2022-11-09T04:10:26.963Z,1.30
2022-11-09T04:12:53.723Z,1.00
2022-11-09T04:15:21.106Z,0.90
2022-11-09T04:17:58.669Z,1.10
2022-11-09T04:20:26.020Z,0.90
2022-11-09T04:23:00.791Z,1.10
2022-11-09T04:25:29.007Z,1.00
2022-11-09T04:27:59.523Z,1.10
2022-11-09T04:30:30.315Z,1.00
2022-11-09T04:32:58.046Z,0.90
2022-11-09T04:35:25.450Z,0.80
2022-11-09T04:38:06.807Z,0.80
2022-11-09T04:40:34.932Z,0.80
2022-11-09T04:43:04.110Z,0.90
2022-11-09T04:45:33.659Z,0.80
2022-11-09T04:48:01.514Z,1.00
2022-11-09T04:50:29.399Z,0.90
2022-11-09T04:53:07.581Z,0.80
2022-11-09T04:55:34.505Z,1.00
2022-11-09T04:58:00.959Z,0.90
2022-11-09T05:00:27.506Z,1.10
2022-11-09T05:02:54.134Z,0.80
2022-11-09T05:05:20.551Z,0.90
2022-11-09T05:07:46.933Z,1.00
2022-11-09T05:10:13.391Z,1.00
2022-11-09T05:12:44.806Z,0.90
2022-11-09T05:15:12.568Z,0.90
2022-11-09T05:17:39.012Z,1.20
2022-11-09T05:20:05.871Z,0.90
2022-11-09T05:22:51.134Z,1.20
2022-11-09T05:25:17.643Z,1.10
2022-11-09T05:27:44.300Z,1.00
2022-11-09T05:30:11.380Z,1.40
2022-11-09T05:32:41.035Z,1.40
2022-11-09T05:35:08.160Z,1.20
2022-11-09T05:37:34.835Z,1.20
2022-11-09T05:40:01.485Z,1.10
2022-11-09T05:42:27.949Z,1.20
2022-11-09T05:44:55.632Z,1.10
2022-11-09T05:47:22.320Z,1.10
2022-11-09T05:49:49.254Z,1.20
2022-11-09T05:52:15.703Z,1.20
2022-11-09T05:54:42.160Z,1.30
2022-11-09T05:57:08.567Z,1.20
2022-11-09T05:59:35.067Z,1.50
2022-11-09T06:02:01.654Z,1.30
2022-11-09T06:04:28.132Z,1.50
2022-11-09T06:06:54.608Z,1.50
2022-11-09T06:09:21.111Z,1.30
2022-11-09T06:11:47.616Z,1.40
2022-11-09T06:14:14.154Z,2.10
2022-11-09T06:16:40.702Z,1.80
2022-11-09T06:19:07.232Z,2.00
2022-11-09T06:21:33.761Z,1.50
2022-11-09T06:24:00.283Z,1.70
2022-11-09T06:26:26.792Z,1.60
2022-11-09T06:28:53.306Z,1.60
2022-11-09T06:31:20.759Z,1.70
2022-11-09T06:33:47.142Z,1.20
2022-11-09T06:36:13.918Z,1.50
2022-11-09T06:38:41.377Z,1.30
2022-11-09T06:41:09.236Z,1.40
2022-11-09T06:43:36.076Z,1.30
2022-11-09T06:46:04.441Z,3.90
2022-11-09T06:48:31.244Z,1.30
2022-11-09T06:51:03.050Z,1.40
2022-11-09T06:53:31.176Z,1.30
2022-11-09T06:55:59.390Z,1.20
2022-11-09T06:58:26.505Z,1.20
2022-11-09T07:00:53.092Z,1.20
2022-11-09T07:03:21.257Z,1.40
2022-11-09T07:05:49.700Z,1.30
2022-11-09T07:08:17.278Z,1.20
2022-11-09T07:10:44.813Z,1.30
2022-11-09T07:13:12.154Z,1.40
2022-11-09T07:15:39.497Z,1.30
2022-11-09T07:18:08.144Z,1.40
2022-11-09T07:20:34.593Z,1.20
2022-11-09T07:23:01.113Z,1.20
2022-11-09T07:25:27.731Z,1.30
2022-11-09T07:27:54.194Z,1.50
2022-11-09T07:30:20.683Z,1.20
2022-11-09T07:33:07.918Z,1.40
2022-11-09T07:35:33.602Z,1.10
2022-11-09T07:38:01.904Z,1.30
2022-11-09T07:40:28.941Z,1.20
2022-11-09T07:43:00.362Z,1.10
2022-11-09T07:45:28.134Z,1.20
2022-11-09T07:48:00.217Z,1.20
2022-11-09T07:50:27.931Z,1.30
2022-11-09T07:52:58.931Z,1.30
2022-11-09T07:55:26.521Z,1.40
2022-11-09T07:57:58.412Z,1.60
2022-11-09T08:00:26.528Z,1.80
2022-11-09T08:02:53.766Z,1.40
2022-11-09T08:05:20.754Z,1.60
2022-11-09T08:07:47.466Z,1.40
2022-11-09T08:10:14.577Z,1.20
2022-11-09T08:12:41.061Z,1.30
2022-11-09T08:15:08.129Z,1.40
2022-11-09T08:17:34.700Z,1.10
2022-11-09T08:20:01.145Z,1.30
2022-11-09T08:22:27.749Z,1.10
2022-11-09T08:24:54.289Z,1.00
2022-11-09T08:27:22.929Z,1.10
2022-11-09T08:29:49.409Z,0.90
2022-11-09T08:32:15.881Z,1.00
2022-11-09T08:34:46.986Z,1.00
2022-11-09T08:37:13.379Z,1.20
2022-11-09T08:39:39.837Z,1.10
2022-11-09T08:42:06.268Z,1.00
2022-11-09T08:44:32.698Z,1.10
2022-11-09T08:46:59.224Z,1.10
2022-11-09T08:49:25.651Z,1.00
2022-11-09T08:51:52.102Z,0.90
2022-11-09T08:54:18.781Z,1.20
2022-11-09T08:56:46.460Z,0.90
2022-11-09T08:59:12.904Z,1.10
2022-11-09T09:01:39.554Z,1.20
2022-11-09T09:04:06.047Z,0.90
2022-11-09T09:06:32.494Z,1.00
2022-11-09T09:08:59.043Z,1.10
2022-11-09T09:11:25.447Z,1.10
2022-11-09T09:13:51.865Z,1.10
2022-11-09T09:16:18.281Z,0.90
2022-11-09T09:18:47.386Z,0.90
2022-11-09T09:21:13.888Z,1.20
2022-11-09T09:23:40.398Z,1.10
2022-11-09T09:26:07.025Z,1.10
2022-11-09T09:28:33.482Z,1.00
2022-11-09T09:31:01.372Z,0.90
2022-11-09T09:33:28.587Z,0.90
2022-11-09T09:35:59.057Z,0.80
2022-11-09T09:38:26.919Z,1.10
2022-11-09T09:41:00.609Z,1.00
2022-11-09T09:43:43.811Z,0.90
2022-11-09T09:46:55.692Z,0.70
2022-11-09T09:49:28.713Z,0.80
2022-11-09T09:52:20.503Z,0.70
2022-11-09T09:54:58.065Z,0.70
2022-11-09T09:57:28.868Z,0.70
2022-11-09T09:59:59.798Z,1.20
2022-11-09T10:02:36.049Z,0.90
2022-11-09T10:05:08.025Z,0.70
2022-11-09T10:07:45.525Z,0.80
2022-11-09T10:10:46.770Z,0.70
2022-11-09T10:13:48.864Z,0.90
2022-11-09T10:16:44.486Z,0.80
2022-11-09T10:19:29.692Z,0.80
2022-11-09T10:22:22.606Z,0.90
2022-11-09T10:25:37.428Z,0.80
2022-11-09T10:27:56.695Z,0.80
2022-11-09T10:30:25.811Z,1.00
2022-11-09T10:32:57.228Z,0.90
2022-11-09T10:35:30.979Z,0.70
2022-11-09T10:37:57.480Z,0.80
2022-11-09T10:40:36.294Z,1.20
2022-11-09T10:43:09.213Z,1.00
2022-11-09T10:45:37.548Z,0.70
2022-11-09T10:48:06.091Z,0.90
2022-11-09T10:50:37.669Z,0.70
2022-11-09T10:53:27.111Z,0.70
2022-11-09T10:55:57.406Z,0.60
2022-11-09T10:58:34.640Z,0.70
2022-11-09T11:01:01.193Z,0.60
2022-11-09T11:03:29.609Z,0.60
2022-11-09T11:05:58.939Z,1.00
2022-11-09T11:08:32.601Z,0.90
2022-11-09T11:11:34.477Z,1.00
2022-11-09T11:14:23.070Z,1.10
2022-11-09T11:16:53.069Z,0.90
2022-11-09T11:19:34.377Z,0.90
2022-11-09T11:22:14.292Z,0.80
2022-11-09T11:24:44.888Z,0.90
2022-11-09T11:27:21.982Z,0.70
2022-11-09T11:29:58.235Z,0.60
2022-11-09T11:32:25.017Z,0.60
2022-11-09T11:35:00.088Z,0.90
2022-11-09T11:37:27.431Z,0.60
2022-11-09T11:40:02.491Z,0.80
2022-11-09T11:42:42.704Z,0.80
2022-11-09T11:45:41.624Z,0.80
2022-11-09T11:48:11.722Z,0.80
2022-11-09T11:51:04.675Z,0.80
2022-11-09T11:53:49.856Z,1.00
2022-11-09T11:56:36.119Z,0.70
2022-11-09T11:59:30.668Z,0.70
2022-11-09T12:02:23.433Z,1.10
2022-11-09T12:05:13.140Z,1.00
2022-11-09T12:07:54.640Z,1.00
2022-11-09T12:10:36.003Z,0.70
2022-11-09T12:13:05.189Z,0.70
2022-11-09T12:16:04.271Z,1.00
2022-11-09T12:18:52.656Z,0.70
2022-11-09T12:21:24.531Z,0.90
2022-11-09T12:24:19.651Z,0.70
2022-11-09T12:27:04.679Z,1.10
2022-11-09T12:29:59.471Z,0.80
2022-11-09T12:32:35.135Z,0.70
2022-11-09T12:35:10.620Z,0.60
2022-11-09T12:37:49.453Z,0.80
2022-11-09T12:40:30.240Z,0.70
2022-11-09T12:43:04.109Z,0.90
2022-11-09T12:45:41.318Z,0.60
2022-11-09T12:48:18.547Z,0.90
2022-11-09T12:50:45.470Z,0.80
2022-11-09T12:53:13.231Z,0.60
2022-11-09T12:55:49.844Z,0.60
2022-11-09T12:58:29.235Z,0.70
2022-11-09T13:01:01.810Z,0.70
2022-11-09T13:03:31.718Z,0.90
2022-11-09T13:06:11.508Z,0.70
2022-11-09T13:08:40.186Z,0.50
2022-11-09T13:11:21.997Z,0.90
2022-11-09T13:13:48.511Z,0.70
2022-11-09T13:16:34.923Z,0.60
2022-11-09T13:19:01.699Z,0.70
2022-11-09T13:21:28.121Z,0.70
2022-11-09T13:24:01.606Z,0.70
2022-11-09T13:26:32.639Z,0.50
2022-11-09T13:29:29.186Z,0.60
2022-11-09T13:31:58.508Z,0.60
2022-11-09T13:34:46.471Z,0.80
2022-11-09T13:37:36.104Z,0.70
2022-11-09T13:40:31.450Z,0.50
2022-11-09T13:43:10.120Z,0.80
2022-11-09T13:45:55.319Z,0.50
2022-11-09T13:48:40.709Z,0.70
2022-11-09T13:51:16.885Z,0.80
2022-11-09T13:54:00.627Z,0.70
2022-11-09T13:56:33.602Z,0.80
2022-11-09T13:59:09.872Z,0.70
2022-11-09T14:01:46.726Z,0.50
2022-11-09T14:04:41.401Z,0.50
2022-11-09T14:07:22.930Z,0.50
2022-11-09T14:10:28.431Z,0.40
2022-11-09T14:13:10.361Z,0.50
2022-11-09T14:15:46.149Z,0.50
2022-11-09T14:18:28.886Z,0.60
2022-11-09T14:21:16.317Z,0.40
2022-11-09T14:23:42.979Z,0.40
2022-11-09T14:26:16.378Z,0.70
2022-11-09T14:28:43.108Z,0.60
2022-11-09T14:31:24.655Z,0.60
2022-11-09T14:34:05.905Z,0.50
2022-11-09T14:36:34.987Z,0.60
2022-11-09T14:39:05.053Z,0.50
2022-11-09T14:41:31.655Z,0.70
2022-11-09T14:44:00.542Z,0.60
2022-11-09T14:46:31.121Z,0.50
2022-11-09T14:49:03.135Z,0.70
2022-11-09T14:51:38.509Z,0.60
2022-11-09T14:54:13.372Z,0.80
2022-11-09T14:56:42.385Z,0.70
2022-11-09T14:59:14.385Z,0.70
2022-11-09T15:01:40.896Z,0.70
2022-11-09T15:04:13.225Z,0.60
2022-11-09T15:06:52.051Z,0.60
2022-11-09T15:09:21.622Z,0.70
2022-11-09T15:11:49.503Z,0.50
2022-11-09T15:14:18.963Z,0.50
2022-11-09T15:16:47.413Z,0.60
2022-11-09T15:19:27.153Z,0.70
2022-11-09T15:21:53.559Z,0.80
2022-11-09T15:24:22.488Z,1.20
2022-11-09T15:26:50.887Z,1.00
2022-11-09T15:29:29.200Z,0.70
2022-11-09T15:32:01.504Z,0.60
2022-11-09T15:34:43.136Z,0.80
2022-11-09T15:37:38.977Z,0.60
2022-11-09T15:40:10.352Z,0.70
2022-11-09T15:42:36.859Z,1.00
2022-11-09T15:45:03.920Z,0.80
2022-11-09T15:47:37.817Z,0.80
2022-11-09T15:50:15.637Z,0.70
2022-11-09T15:52:44.316Z,0.80
2022-11-09T15:55:21.936Z,0.80
2022-11-09T15:57:50.764Z,0.90
2022-11-09T16:00:21.113Z,0.90
2022-11-09T16:02:48.717Z,0.80
2022-11-09T16:05:16.438Z,0.80
2022-11-09T16:07:53.501Z,0.70
2022-11-09T16:10:23.275Z,0.90
2022-11-09T16:12:53.202Z,1.00
2022-11-09T16:15:20.315Z,0.90
2022-11-09T16:17:49.606Z,0.90
2022-11-09T16:20:17.814Z,0.80
2022-11-09T16:22:44.636Z,0.90
2022-11-09T16:25:12.193Z,0.80
2022-11-09T16:27:55.021Z,0.80
2022-11-09T16:30:21.976Z,0.80
2022-11-09T16:32:48.359Z,0.80
2022-11-09T16:35:26.702Z,1.10
2022-11-09T16:37:55.401Z,1.00
2022-11-09T16:40:22.392Z,0.90
2022-11-09T16:42:49.350Z,0.80
2022-11-09T16:45:17.095Z,0.80
2022-11-09T16:47:50.104Z,0.80
2022-11-09T16:50:17.084Z,0.90
2022-11-09T16:52:43.632Z,1.10
2022-11-09T16:55:10.529Z,0.90
2022-11-09T16:57:37.534Z,0.80
2022-11-09T17:00:06.123Z,1.00
2022-11-09T17:02:33.127Z,0.90
2022-11-09T17:04:59.583Z,0.80
2022-11-09T17:07:27.341Z,0.80
2022-11-09T17:09:53.836Z,1.00
2022-11-09T17:12:20.419Z,0.90
2022-11-09T17:14:46.841Z,1.00
2022-11-09T17:17:18.211Z,0.90
2022-11-09T17:19:48.003Z,1.00
2022-11-09T17:22:15.066Z,1.10
2022-11-09T17:24:41.733Z,1.00
2022-11-09T17:27:09.654Z,0.80
2022-11-09T17:29:40.216Z,1.00
2022-11-09T17:32:09.167Z,1.10
2022-11-09T17:34:36.022Z,1.10
2022-11-09T17:37:04.596Z,1.20
2022-11-09T17:39:32.297Z,1.30
2022-11-09T17:41:58.772Z,1.50
2022-11-09T17:44:25.356Z,1.40
2022-11-09T17:46:52.033Z,1.00
2022-11-09T17:49:18.467Z,0.70
2022-11-09T17:51:45.057Z,1.20
2022-11-09T17:54:11.445Z,0.80
2022-11-09T17:56:37.904Z,1.30
2022-11-09T17:59:05.606Z,1.30
2022-11-09T18:01:36.412Z,1.10
2022-11-09T18:04:07.744Z,1.20
2022-11-09T18:06:34.260Z,0.90
2022-11-09T18:09:39.243Z,1.00
2022-11-09T18:11:47.916Z,1.40
2022-11-09T18:14:15.927Z,1.10
2022-11-09T18:16:42.552Z,1.20
2022-11-09T18:19:08.977Z,1.40
2022-11-09T18:21:35.591Z,1.10
2022-11-09T18:24:02.331Z,1.00
2022-11-09T18:26:29.014Z,1.10
2022-11-09T18:28:56.700Z,0.90
2022-11-09T18:31:23.652Z,1.30
2022-11-09T18:33:51.082Z,1.10
2022-11-09T18:36:21.299Z,1.50
2022-11-09T18:38:51.141Z,1.00
2022-11-09T18:41:21.951Z,1.00
2022-11-09T18:43:50.101Z,1.30
2022-11-09T18:46:18.866Z,1.20
2022-11-09T18:48:45.830Z,1.00
2022-11-09T18:51:12.378Z,1.30
2022-11-09T18:53:41.983Z,1.20
2022-11-09T18:56:24.547Z,1.70
2022-11-09T18:58:53.252Z,1.10
2022-11-09T19:01:22.929Z,1.10
2022-11-09T19:03:49.987Z,1.50
2022-11-09T19:06:18.744Z,1.10
2022-11-09T19:09:04.597Z,1.10
2022-11-09T19:11:32.351Z,1.20
2022-11-09T19:13:59.129Z,1.00
2022-11-09T19:16:27.823Z,1.00
2022-11-09T19:18:54.480Z,1.20
2022-11-09T19:21:40.865Z,1.10
2022-11-09T19:24:11.157Z,1.20
2022-11-09T19:26:37.668Z,1.00
2022-11-09T19:29:06.068Z,1.10
2022-11-09T19:31:33.902Z,1.10
2022-11-09T19:34:00.414Z,1.00
2022-11-09T19:36:31.095Z,1.20
2022-11-09T19:38:58.153Z,1.00
2022-11-09T19:41:25.242Z,1.10
2022-11-09T19:43:54.551Z,1.30
2022-11-09T19:46:22.034Z,1.30
2022-11-09T19:48:49.171Z,0.90
2022-11-09T19:51:17.398Z,1.00
2022-11-09T19:53:55.748Z,1.10
2022-11-09T19:56:24.690Z,1.10
2022-11-09T19:58:53.399Z,1.30
2022-11-09T20:01:20.456Z,1.20
2022-11-09T20:03:51.730Z,1.20
2022-11-09T20:06:18.738Z,1.00
2022-11-09T20:08:45.941Z,1.20
2022-11-09T20:11:36.846Z,0.90
2022-11-09T20:14:04.778Z,1.20
2022-11-09T20:16:33.253Z,1.00
2022-11-09T20:19:01.417Z,1.30
2022-11-09T20:21:27.957Z,1.30
2022-11-09T20:23:54.705Z,1.60
2022-11-09T20:26:21.287Z,1.10
2022-11-09T20:28:47.806Z,1.30
2022-11-09T20:31:16.553Z,1.30
2022-11-09T20:33:43.675Z,1.20
2022-11-09T20:36:10.487Z,1.30
2022-11-09T20:38:37.174Z,1.40
2022-11-09T20:41:06.149Z,1.50
2022-11-09T20:43:33.008Z,1.20
2022-11-09T20:46:05.507Z,1.40
2022-11-09T20:48:52.829Z,1.30
2022-11-09T20:51:20.105Z,1.20
2022-11-09T20:53:48.370Z,1.60
2022-11-09T20:56:15.313Z,1.20
2022-11-09T20:58:41.957Z,0.90
2022-11-09T21:01:15.946Z,1.40
2022-11-09T21:03:43.229Z,1.30
2022-11-09T21:06:11.164Z,1.30
2022-11-09T21:08:38.281Z,1.10
2022-11-09T21:11:07.339Z,1.30
2022-11-09T21:13:34.880Z,1.20
2022-11-09T21:16:10.235Z,1.30
2022-11-09T21:18:36.798Z,1.40
2022-11-09T21:21:08.776Z,1.60
2022-11-09T21:23:55.608Z,1.30
2022-11-09T21:26:40.656Z,1.80
2022-11-09T21:29:29.071Z,1.40
2022-11-09T21:31:55.655Z,1.40
2022-11-09T21:34:22.291Z,1.30
2022-11-09T21:36:48.740Z,1.50
2022-11-09T21:39:15.226Z,1.40
2022-11-09T21:41:42.303Z,1.40
2022-11-09T21:44:10.433Z,1.20
2022-11-09T21:46:39.090Z,1.30
2022-11-09T21:49:07.145Z,1.60
2022-11-09T21:51:35.207Z,1.50
2022-11-09T21:54:02.498Z,1.80
2022-11-09T21:56:29.299Z,1.60
2022-11-09T21:58:56.096Z,1.50
2022-11-09T22:01:23.370Z,1.40
2022-11-09T22:03:50.431Z,1.50
2022-11-09T22:06:17.336Z,1.40
2022-11-09T22:08:44.826Z,1.60
2022-11-09T22:11:45.443Z,1.70
2022-11-09T22:14:36.166Z,1.60
2022-11-09T22:17:03.617Z,1.50
2022-11-09T22:19:48.771Z,1.70
2022-11-09T22:22:15.756Z,2.20
2022-11-09T22:24:42.793Z,1.60
2022-11-09T22:27:09.526Z,1.50
2022-11-09T22:29:36.111Z,1.50
2022-11-09T22:32:03.008Z,1.60
2022-11-09T22:34:29.742Z,1.60
2022-11-09T22:36:56.259Z,1.80
2022-11-09T22:39:22.920Z,2.10
2022-11-09T22:41:49.425Z,1.90
2022-11-09T22:44:16.144Z,1.80
2022-11-09T22:46:42.607Z,1.80
2022-11-09T22:49:10.167Z,1.40
2022-11-09T22:51:36.632Z,1.60
2022-11-09T22:54:03.338Z,1.90
2022-11-09T22:56:30.234Z,1.80
2022-11-09T22:58:57.260Z,1.40
2022-11-09T23:01:23.874Z,1.70
2022-11-09T23:03:50.420Z,2.00
2022-11-09T23:06:19.550Z,1.90
2022-11-09T23:08:47.154Z,1.70
2022-11-09T23:11:22.083Z,1.80
2022-11-09T23:13:51.101Z,1.80
2022-11-09T23:16:18.068Z,1.70
2022-11-09T23:18:54.063Z,1.60
2022-11-09T23:21:25.135Z,1.80
2022-11-09T23:23:53.621Z,1.60
2022-11-09T23:26:21.205Z,1.90
2022-11-09T23:28:47.972Z,1.80
2022-11-09T23:31:17.336Z,1.60
2022-11-09T23:33:43.697Z,1.40
2022-11-09T23:36:10.660Z,1.80
2022-11-09T23:38:38.830Z,2.00
2022-11-09T23:41:08.526Z,1.60
2022-11-09T23:43:36.669Z,2.10
2022-11-09T23:46:06.483Z,2.00
2022-11-09T23:48:33.606Z,1.60
2022-11-09T23:51:01.599Z,1.90
2022-11-09T23:53:30.250Z,1.80
2022-11-09T23:56:05.284Z,1.80
2022-11-09T23:58:32.378Z,1.70
